sensor_id;sensor_type;location;lat;lon;timestamp;temperature;humidity
12682;DHT22;6405;59.208;18.216;2023-02-11T00:01:37;0.90;99.90
12682;DHT22;6405;59.208;18.216;2023-02-11T00:04:04;0.90;99.90
12682;DHT22;6405;59.208;18.216;2023-02-11T00:06:31;1.00;99.90
12682;DHT22;6405;59.208;18.216;2023-02-11T00:08:57;0.90;99.90
12682;DHT22;6405;59.208;18.216;2023-02-11T00:11:28;1.00;99.90
12682;DHT22;6405;59.208;18.216;2023-02-11T00:14:01;1.00;99.90
12682;DHT22;6405;59.208;18.216;2023-02-11T00:16:27;1.00;99.90
12682;DHT22;6405;59.208;18.216;2023-02-11T00:18:54;1.00;99.90
12682;DHT22;6405;59.208;18.216;2023-02-11T00:21:22;0.90;99.90
12682;DHT22;6405;59.208;18.216;2023-02-11T00:23:48;0.90;99.90
12682;DHT22;6405;59.208;18.216;2023-02-11T00:26:19;0.90;99.90
12682;DHT22;6405;59.208;18.216;2023-02-11T00:28:45;0.90;99.90
12682;DHT22;6405;59.208;18.216;2023-02-11T00:31:12;1.00;99.90
12682;DHT22;6405;59.208;18.216;2023-02-11T00:33:38;1.00;99.90
12682;DHT22;6405;59.208;18.216;2023-02-11T00:36:09;1.00;99.90
12682;DHT22;6405;59.208;18.216;2023-02-11T00:38:36;0.90;99.90
12682;DHT22;6405;59.208;18.216;2023-02-11T00:41:01;0.90;99.90
12682;DHT22;6405;59.208;18.216;2023-02-11T00:43:27;0.90;99.90
12682;DHT22;6405;59.208;18.216;2023-02-11T00:45:52;0.90;99.90
12682;DHT22;6405;59.208;18.216;2023-02-11T00:48:18;0.90;99.90
12682;DHT22;6405;59.208;18.216;2023-02-11T00:50:44;0.90;99.90
12682;DHT22;6405;59.208;18.216;2023-02-11T00:53:10;0.90;99.90
12682;DHT22;6405;59.208;18.216;2023-02-11T00:55:35;0.90;99.90
12682;DHT22;6405;59.208;18.216;2023-02-11T00:58:01;0.90;99.90
12682;DHT22;6405;59.208;18.216;2023-02-11T01:00:27;0.90;99.90
12682;DHT22;6405;59.208;18.216;2023-02-11T01:02:53;0.90;99.90
12682;DHT22;6405;59.208;18.216;2023-02-11T01:05:19;0.90;99.90
12682;DHT22;6405;59.208;18.216;2023-02-11T01:07:45;0.90;99.90
12682;DHT22;6405;59.208;18.216;2023-02-11T01:10:11;0.90;99.90
12682;DHT22;6405;59.208;18.216;2023-02-11T01:12:37;0.90;99.90
12682;DHT22;6405;59.208;18.216;2023-02-11T01:15:04;0.90;99.90
12682;DHT22;6405;59.208;18.216;2023-02-11T01:17:30;0.90;99.90
12682;DHT22;6405;59.208;18.216;2023-02-11T01:19:56;0.90;99.90
12682;DHT22;6405;59.208;18.216;2023-02-11T01:22:21;0.90;99.90
12682;DHT22;6405;59.208;18.216;2023-02-11T01:24:47;0.90;99.90
12682;DHT22;6405;59.208;18.216;2023-02-11T01:27:12;0.90;99.90
12682;DHT22;6405;59.208;18.216;2023-02-11T01:29:38;0.90;99.90
12682;DHT22;6405;59.208;18.216;2023-02-11T01:32:04;0.90;99.90
12682;DHT22;6405;59.208;18.216;2023-02-11T01:34:29;0.90;99.90
12682;DHT22;6405;59.208;18.216;2023-02-11T01:36:58;0.90;99.90
12682;DHT22;6405;59.208;18.216;2023-02-11T01:39:25;0.90;99.90
12682;DHT22;6405;59.208;18.216;2023-02-11T01:41:52;0.90;99.90
12682;DHT22;6405;59.208;18.216;2023-02-11T01:44:32;0.90;99.90
12682;DHT22;6405;59.208;18.216;2023-02-11T01:47:00;0.90;99.90
12682;DHT22;6405;59.208;18.216;2023-02-11T01:49:56;0.90;99.90
12682;DHT22;6405;59.208;18.216;2023-02-11T01:52:31;0.90;99.90
12682;DHT22;6405;59.208;18.216;2023-02-11T01:55:11;0.90;99.90
12682;DHT22;6405;59.208;18.216;2023-02-11T01:58:00;0.90;99.90
12682;DHT22;6405;59.208;18.216;2023-02-11T02:00:36;0.90;99.90
12682;DHT22;6405;59.208;18.216;2023-02-11T02:03:14;0.90;99.90
12682;DHT22;6405;59.208;18.216;2023-02-11T02:05:50;1.00;99.90
12682;DHT22;6405;59.208;18.216;2023-02-11T02:10:49;1.00;99.90
12682;DHT22;6405;59.208;18.216;2023-02-11T02:13:18;1.00;99.90
12682;DHT22;6405;59.208;18.216;2023-02-11T02:15:55;1.00;99.90
12682;DHT22;6405;59.208;18.216;2023-02-11T02:27:02;1.00;99.90
12682;DHT22;6405;59.208;18.216;2023-02-11T02:32:31;1.00;99.90
12682;DHT22;6405;59.208;18.216;2023-02-11T02:38:21;1.00;99.90
12682;DHT22;6405;59.208;18.216;2023-02-11T02:41:08;0.90;99.90
12682;DHT22;6405;59.208;18.216;2023-02-11T02:43:37;1.00;99.90
12682;DHT22;6405;59.208;18.216;2023-02-11T02:46:25;1.00;99.90
12682;DHT22;6405;59.208;18.216;2023-02-11T02:48:52;1.00;99.90
12682;DHT22;6405;59.208;18.216;2023-02-11T02:59:50;1.00;99.90
12682;DHT22;6405;59.208;18.216;2023-02-11T03:02:35;1.10;99.90
12682;DHT22;6405;59.208;18.216;2023-02-11T03:05:16;1.10;99.90
12682;DHT22;6405;59.208;18.216;2023-02-11T03:08:02;1.00;99.90
12682;DHT22;6405;59.208;18.216;2023-02-11T03:10:36;1.10;99.90
12682;DHT22;6405;59.208;18.216;2023-02-11T03:13:03;1.10;99.90
12682;DHT22;6405;59.208;18.216;2023-02-11T03:15:31;1.10;99.90
12682;DHT22;6405;59.208;18.216;2023-02-11T03:18:01;1.10;99.90
12682;DHT22;6405;59.208;18.216;2023-02-11T03:20:29;1.10;99.90
12682;DHT22;6405;59.208;18.216;2023-02-11T03:23:18;1.10;99.90
12682;DHT22;6405;59.208;18.216;2023-02-11T03:25:53;1.20;99.90
12682;DHT22;6405;59.208;18.216;2023-02-11T03:31:08;1.30;99.90
12682;DHT22;6405;59.208;18.216;2023-02-11T03:34:01;1.30;99.90
12682;DHT22;6405;59.208;18.216;2023-02-11T03:39:03;1.30;99.90
12682;DHT22;6405;59.208;18.216;2023-02-11T03:41:30;1.30;99.90
12682;DHT22;6405;59.208;18.216;2023-02-11T03:43:59;1.40;99.90
12682;DHT22;6405;59.208;18.216;2023-02-11T03:46:31;1.50;99.90
12682;DHT22;6405;59.208;18.216;2023-02-11T03:49:05;1.60;99.90
12682;DHT22;6405;59.208;18.216;2023-02-11T03:51:33;1.70;99.90
12682;DHT22;6405;59.208;18.216;2023-02-11T03:54:04;1.80;99.90
12682;DHT22;6405;59.208;18.216;2023-02-11T03:56:34;1.90;99.90
12682;DHT22;6405;59.208;18.216;2023-02-11T03:59:01;1.90;99.90
12682;DHT22;6405;59.208;18.216;2023-02-11T04:01:27;2.00;99.90
12682;DHT22;6405;59.208;18.216;2023-02-11T04:03:52;1.90;99.90
12682;DHT22;6405;59.208;18.216;2023-02-11T04:06:18;1.90;99.90
12682;DHT22;6405;59.208;18.216;2023-02-11T04:08:44;1.90;99.90
12682;DHT22;6405;59.208;18.216;2023-02-11T04:11:09;1.80;99.90
12682;DHT22;6405;59.208;18.216;2023-02-11T04:13:35;1.70;99.90
12682;DHT22;6405;59.208;18.216;2023-02-11T04:16:00;1.60;99.90
12682;DHT22;6405;59.208;18.216;2023-02-11T04:18:26;1.60;99.90
12682;DHT22;6405;59.208;18.216;2023-02-11T04:20:52;1.50;99.90
12682;DHT22;6405;59.208;18.216;2023-02-11T04:23:17;1.50;99.90
12682;DHT22;6405;59.208;18.216;2023-02-11T04:25:43;1.40;99.90
12682;DHT22;6405;59.208;18.216;2023-02-11T04:28:09;1.40;99.90
12682;DHT22;6405;59.208;18.216;2023-02-11T04:30:34;1.30;99.90
12682;DHT22;6405;59.208;18.216;2023-02-11T04:33:00;1.30;99.90
12682;DHT22;6405;59.208;18.216;2023-02-11T04:35:26;1.20;99.90
12682;DHT22;6405;59.208;18.216;2023-02-11T04:37:51;1.20;99.90
12682;DHT22;6405;59.208;18.216;2023-02-11T04:40:17;1.10;99.90
12682;DHT22;6405;59.208;18.216;2023-02-11T04:42:42;1.10;99.90
12682;DHT22;6405;59.208;18.216;2023-02-11T04:45:08;1.10;99.90
12682;DHT22;6405;59.208;18.216;2023-02-11T04:47:34;1.00;99.90
12682;DHT22;6405;59.208;18.216;2023-02-11T04:50:00;1.00;99.90
12682;DHT22;6405;59.208;18.216;2023-02-11T04:52:26;1.00;99.90
12682;DHT22;6405;59.208;18.216;2023-02-11T04:54:51;1.00;99.90
12682;DHT22;6405;59.208;18.216;2023-02-11T04:57:17;1.00;99.90
12682;DHT22;6405;59.208;18.216;2023-02-11T04:59:43;0.90;99.90
12682;DHT22;6405;59.208;18.216;2023-02-11T05:02:08;0.90;99.90
12682;DHT22;6405;59.208;18.216;2023-02-11T05:04:34;0.90;99.90
12682;DHT22;6405;59.208;18.216;2023-02-11T05:07:00;0.80;99.90
12682;DHT22;6405;59.208;18.216;2023-02-11T05:09:25;0.90;99.90
12682;DHT22;6405;59.208;18.216;2023-02-11T05:11:51;0.80;99.90
12682;DHT22;6405;59.208;18.216;2023-02-11T05:14:18;0.80;99.90
12682;DHT22;6405;59.208;18.216;2023-02-11T05:16:43;0.80;99.90
12682;DHT22;6405;59.208;18.216;2023-02-11T05:19:09;0.80;99.90
12682;DHT22;6405;59.208;18.216;2023-02-11T05:21:34;0.80;99.90
12682;DHT22;6405;59.208;18.216;2023-02-11T05:24:00;0.70;99.90
12682;DHT22;6405;59.208;18.216;2023-02-11T05:26:26;0.70;99.90
12682;DHT22;6405;59.208;18.216;2023-02-11T05:28:51;0.70;99.90
12682;DHT22;6405;59.208;18.216;2023-02-11T05:31:17;0.70;99.90
12682;DHT22;6405;59.208;18.216;2023-02-11T05:33:43;0.70;99.90
12682;DHT22;6405;59.208;18.216;2023-02-11T05:36:10;0.70;99.90
12682;DHT22;6405;59.208;18.216;2023-02-11T05:38:36;0.60;99.90
12682;DHT22;6405;59.208;18.216;2023-02-11T05:41:03;0.60;99.90
12682;DHT22;6405;59.208;18.216;2023-02-11T05:43:29;0.50;99.90
12682;DHT22;6405;59.208;18.216;2023-02-11T05:45:55;0.50;99.90
12682;DHT22;6405;59.208;18.216;2023-02-11T05:48:21;0.40;99.90
12682;DHT22;6405;59.208;18.216;2023-02-11T05:50:47;0.40;99.90
12682;DHT22;6405;59.208;18.216;2023-02-11T05:53:12;0.30;99.90
12682;DHT22;6405;59.208;18.216;2023-02-11T05:55:38;0.30;99.90
12682;DHT22;6405;59.208;18.216;2023-02-11T05:58:05;0.30;99.90
12682;DHT22;6405;59.208;18.216;2023-02-11T06:00:32;0.30;99.90
12682;DHT22;6405;59.208;18.216;2023-02-11T06:02:58;0.20;99.90
12682;DHT22;6405;59.208;18.216;2023-02-11T06:05:24;0.20;99.90
12682;DHT22;6405;59.208;18.216;2023-02-11T06:07:49;0.20;99.90
12682;DHT22;6405;59.208;18.216;2023-02-11T06:10:15;0.20;99.90
12682;DHT22;6405;59.208;18.216;2023-02-11T06:12:40;0.20;99.90
12682;DHT22;6405;59.208;18.216;2023-02-11T06:15:06;0.10;99.90
12682;DHT22;6405;59.208;18.216;2023-02-11T06:17:32;0.10;99.90
12682;DHT22;6405;59.208;18.216;2023-02-11T06:19:59;0.10;99.90
12682;DHT22;6405;59.208;18.216;2023-02-11T06:22:25;0.10;99.90
12682;DHT22;6405;59.208;18.216;2023-02-11T06:24:51;0.00;99.90
12682;DHT22;6405;59.208;18.216;2023-02-11T06:27:17;0.00;99.90
12682;DHT22;6405;59.208;18.216;2023-02-11T06:29:44;0.00;99.90
12682;DHT22;6405;59.208;18.216;2023-02-11T06:32:10;0.00;99.90
12682;DHT22;6405;59.208;18.216;2023-02-11T06:34:36;0.00;99.90
12682;DHT22;6405;59.208;18.216;2023-02-11T06:37:02;-0.10;99.90
12682;DHT22;6405;59.208;18.216;2023-02-11T06:39:28;-0.10;99.90
12682;DHT22;6405;59.208;18.216;2023-02-11T06:41:54;-0.20;99.90
12682;DHT22;6405;59.208;18.216;2023-02-11T06:44:19;-0.20;99.90
12682;DHT22;6405;59.208;18.216;2023-02-11T06:46:46;-0.30;99.90
12682;DHT22;6405;59.208;18.216;2023-02-11T06:49:12;-0.30;99.90
12682;DHT22;6405;59.208;18.216;2023-02-11T06:51:38;-0.30;99.90
12682;DHT22;6405;59.208;18.216;2023-02-11T06:54:04;-0.30;99.90
12682;DHT22;6405;59.208;18.216;2023-02-11T06:56:30;-0.30;99.90
12682;DHT22;6405;59.208;18.216;2023-02-11T06:58:56;-0.30;99.90
12682;DHT22;6405;59.208;18.216;2023-02-11T07:01:23;-0.30;99.90
12682;DHT22;6405;59.208;18.216;2023-02-11T07:03:49;-0.30;99.90
12682;DHT22;6405;59.208;18.216;2023-02-11T07:06:20;-0.40;99.90
12682;DHT22;6405;59.208;18.216;2023-02-11T07:08:46;-0.40;99.90
12682;DHT22;6405;59.208;18.216;2023-02-11T07:11:15;-0.40;99.90
12682;DHT22;6405;59.208;18.216;2023-02-11T07:13:41;-0.50;99.90
12682;DHT22;6405;59.208;18.216;2023-02-11T07:16:08;-0.50;99.90
12682;DHT22;6405;59.208;18.216;2023-02-11T07:18:34;-0.50;99.90
12682;DHT22;6405;59.208;18.216;2023-02-11T07:21:07;-0.50;99.90
12682;DHT22;6405;59.208;18.216;2023-02-11T07:23:33;-0.50;99.90
12682;DHT22;6405;59.208;18.216;2023-02-11T07:26:06;-0.40;99.90
12682;DHT22;6405;59.208;18.216;2023-02-11T07:28:36;-0.50;99.90
12682;DHT22;6405;59.208;18.216;2023-02-11T07:31:19;-0.50;99.90
12682;DHT22;6405;59.208;18.216;2023-02-11T07:33:46;-0.60;99.90
12682;DHT22;6405;59.208;18.216;2023-02-11T07:36:13;-0.60;99.90
12682;DHT22;6405;59.208;18.216;2023-02-11T07:38:39;-0.50;99.90
12682;DHT22;6405;59.208;18.216;2023-02-11T07:41:07;-0.50;99.90
12682;DHT22;6405;59.208;18.216;2023-02-11T07:43:34;-0.50;99.90
12682;DHT22;6405;59.208;18.216;2023-02-11T07:46:16;-0.50;99.90
12682;DHT22;6405;59.208;18.216;2023-02-11T07:48:42;-0.50;99.90
12682;DHT22;6405;59.208;18.216;2023-02-11T07:51:20;-0.40;99.90
12682;DHT22;6405;59.208;18.216;2023-02-11T07:53:46;-0.40;99.90
12682;DHT22;6405;59.208;18.216;2023-02-11T07:56:13;-0.40;99.90
12682;DHT22;6405;59.208;18.216;2023-02-11T07:58:39;-0.40;99.90
12682;DHT22;6405;59.208;18.216;2023-02-11T08:01:11;-0.30;99.90
12682;DHT22;6405;59.208;18.216;2023-02-11T08:03:37;-0.30;99.90
12682;DHT22;6405;59.208;18.216;2023-02-11T08:06:08;-0.40;99.90
12682;DHT22;6405;59.208;18.216;2023-02-11T08:08:34;-0.40;99.90
12682;DHT22;6405;59.208;18.216;2023-02-11T08:11:08;-0.40;99.90
12682;DHT22;6405;59.208;18.216;2023-02-11T08:13:35;-0.30;99.90
12682;DHT22;6405;59.208;18.216;2023-02-11T08:16:01;-0.30;99.90
12682;DHT22;6405;59.208;18.216;2023-02-11T08:18:27;-0.30;99.90
12682;DHT22;6405;59.208;18.216;2023-02-11T08:20:52;-0.20;99.90
12682;DHT22;6405;59.208;18.216;2023-02-11T08:23:18;-0.20;99.90
12682;DHT22;6405;59.208;18.216;2023-02-11T08:25:44;-0.20;99.90
12682;DHT22;6405;59.208;18.216;2023-02-11T08:28:09;-0.10;99.90
12682;DHT22;6405;59.208;18.216;2023-02-11T08:30:35;-0.10;99.90
12682;DHT22;6405;59.208;18.216;2023-02-11T08:33:01;-0.10;99.90
12682;DHT22;6405;59.208;18.216;2023-02-11T08:35:26;-0.10;99.90
12682;DHT22;6405;59.208;18.216;2023-02-11T08:37:52;0.00;99.90
12682;DHT22;6405;59.208;18.216;2023-02-11T08:40:18;-0.10;99.90
12682;DHT22;6405;59.208;18.216;2023-02-11T08:42:44;-0.10;99.90
12682;DHT22;6405;59.208;18.216;2023-02-11T08:45:10;-0.10;99.90
12682;DHT22;6405;59.208;18.216;2023-02-11T08:47:37;-0.10;99.90
12682;DHT22;6405;59.208;18.216;2023-02-11T08:50:03;0.00;99.90
12682;DHT22;6405;59.208;18.216;2023-02-11T08:52:29;0.00;99.90
12682;DHT22;6405;59.208;18.216;2023-02-11T08:54:55;0.00;99.90
12682;DHT22;6405;59.208;18.216;2023-02-11T08:57:20;0.00;99.90
12682;DHT22;6405;59.208;18.216;2023-02-11T08:59:46;0.00;99.90
12682;DHT22;6405;59.208;18.216;2023-02-11T09:02:12;0.00;99.90
12682;DHT22;6405;59.208;18.216;2023-02-11T09:04:39;0.00;99.90
12682;DHT22;6405;59.208;18.216;2023-02-11T09:07:05;0.10;99.90
12682;DHT22;6405;59.208;18.216;2023-02-11T09:09:31;0.10;99.90
12682;DHT22;6405;59.208;18.216;2023-02-11T09:11:56;0.20;99.90
12682;DHT22;6405;59.208;18.216;2023-02-11T09:14:23;0.10;99.90
12682;DHT22;6405;59.208;18.216;2023-02-11T09:16:50;0.20;99.90
12682;DHT22;6405;59.208;18.216;2023-02-11T09:19:16;0.10;99.90
12682;DHT22;6405;59.208;18.216;2023-02-11T09:21:42;0.10;99.90
12682;DHT22;6405;59.208;18.216;2023-02-11T09:24:08;0.10;99.90
12682;DHT22;6405;59.208;18.216;2023-02-11T09:26:35;0.20;99.90
12682;DHT22;6405;59.208;18.216;2023-02-11T09:29:01;0.10;99.90
12682;DHT22;6405;59.208;18.216;2023-02-11T09:31:30;0.10;99.90
12682;DHT22;6405;59.208;18.216;2023-02-11T09:33:59;0.10;99.90
12682;DHT22;6405;59.208;18.216;2023-02-11T09:36:27;0.00;99.90
12682;DHT22;6405;59.208;18.216;2023-02-11T09:38:54;0.10;99.90
12682;DHT22;6405;59.208;18.216;2023-02-11T09:43:56;0.10;99.90
12682;DHT22;6405;59.208;18.216;2023-02-11T09:46:24;0.20;99.90
12682;DHT22;6405;59.208;18.216;2023-02-11T09:48:53;0.10;99.90
12682;DHT22;6405;59.208;18.216;2023-02-11T09:54:15;0.10;99.90
12682;DHT22;6405;59.208;18.216;2023-02-11T09:56:42;0.00;99.90
12682;DHT22;6405;59.208;18.216;2023-02-11T09:59:15;0.00;99.90
12682;DHT22;6405;59.208;18.216;2023-02-11T10:02:04;0.00;99.90
12682;DHT22;6405;59.208;18.216;2023-02-11T10:05:00;0.00;99.90
12682;DHT22;6405;59.208;18.216;2023-02-11T10:07:47;0.00;99.90
12682;DHT22;6405;59.208;18.216;2023-02-11T10:10:46;-0.10;99.90
12682;DHT22;6405;59.208;18.216;2023-02-11T10:13:50;0.00;99.90
12682;DHT22;6405;59.208;18.216;2023-02-11T10:16:23;0.00;99.90
12682;DHT22;6405;59.208;18.216;2023-02-11T10:19:08;0.00;99.90
12682;DHT22;6405;59.208;18.216;2023-02-11T10:22:05;0.00;99.90
12682;DHT22;6405;59.208;18.216;2023-02-11T10:24:34;0.00;99.90
12682;DHT22;6405;59.208;18.216;2023-02-11T10:27:05;0.10;99.90
12682;DHT22;6405;59.208;18.216;2023-02-11T10:29:34;0.10;99.90
12682;DHT22;6405;59.208;18.216;2023-02-11T10:32:05;0.00;99.90
12682;DHT22;6405;59.208;18.216;2023-02-11T10:34:31;0.10;99.90
12682;DHT22;6405;59.208;18.216;2023-02-11T10:36:57;0.00;99.90
12682;DHT22;6405;59.208;18.216;2023-02-11T10:39:25;0.10;99.90
12682;DHT22;6405;59.208;18.216;2023-02-11T10:41:55;0.10;99.90
12682;DHT22;6405;59.208;18.216;2023-02-11T10:44:24;0.10;99.90
12682;DHT22;6405;59.208;18.216;2023-02-11T10:46:51;0.10;99.90
12682;DHT22;6405;59.208;18.216;2023-02-11T10:49:39;0.10;99.90
12682;DHT22;6405;59.208;18.216;2023-02-11T10:52:20;0.10;99.90
12682;DHT22;6405;59.208;18.216;2023-02-11T10:55:18;0.00;99.90
12682;DHT22;6405;59.208;18.216;2023-02-11T10:57:57;0.10;99.90
12682;DHT22;6405;59.208;18.216;2023-02-11T11:00:35;0.00;99.90
12682;DHT22;6405;59.208;18.216;2023-02-11T11:03:19;0.10;99.90
12682;DHT22;6405;59.208;18.216;2023-02-11T11:05:56;0.10;99.90
12682;DHT22;6405;59.208;18.216;2023-02-11T11:08:49;0.00;99.90
12682;DHT22;6405;59.208;18.216;2023-02-11T11:11:17;0.10;99.90
12682;DHT22;6405;59.208;18.216;2023-02-11T11:18:52;0.10;99.90
12682;DHT22;6405;59.208;18.216;2023-02-11T11:21:24;0.10;99.90
12682;DHT22;6405;59.208;18.216;2023-02-11T11:24:00;0.20;99.90
12682;DHT22;6405;59.208;18.216;2023-02-11T11:26:39;0.20;99.90
12682;DHT22;6405;59.208;18.216;2023-02-11T11:29:18;0.10;99.90
12682;DHT22;6405;59.208;18.216;2023-02-11T11:31:55;0.20;99.90
12682;DHT22;6405;59.208;18.216;2023-02-11T11:34:30;0.30;99.90
12682;DHT22;6405;59.208;18.216;2023-02-11T11:36:58;0.20;99.90
12682;DHT22;6405;59.208;18.216;2023-02-11T11:39:31;0.20;99.90
12682;DHT22;6405;59.208;18.216;2023-02-11T11:42:01;0.10;99.90
12682;DHT22;6405;59.208;18.216;2023-02-11T11:44:36;0.00;99.90
12682;DHT22;6405;59.208;18.216;2023-02-11T11:49:49;0.00;99.90
12682;DHT22;6405;59.208;18.216;2023-02-11T11:55:18;0.00;99.90
12682;DHT22;6405;59.208;18.216;2023-02-11T11:57:45;-0.10;99.90
12682;DHT22;6405;59.208;18.216;2023-02-11T12:00:25;0.00;99.90
12682;DHT22;6405;59.208;18.216;2023-02-11T12:08:53;0.00;99.90
12682;DHT22;6405;59.208;18.216;2023-02-11T12:11:33;-0.10;99.90
12682;DHT22;6405;59.208;18.216;2023-02-11T12:16:59;-0.10;99.90
12682;DHT22;6405;59.208;18.216;2023-02-11T12:19:33;-0.10;99.90
12682;DHT22;6405;59.208;18.216;2023-02-11T12:27:46;-0.10;99.90
12682;DHT22;6405;59.208;18.216;2023-02-11T12:33:02;-0.10;99.90
12682;DHT22;6405;59.208;18.216;2023-02-11T12:35:43;-0.10;99.90
12682;DHT22;6405;59.208;18.216;2023-02-11T12:38:24;-0.10;99.90
12682;DHT22;6405;59.208;18.216;2023-02-11T12:43:39;0.00;99.90
12682;DHT22;6405;59.208;18.216;2023-02-11T12:56:36;0.10;99.90
12682;DHT22;6405;59.208;18.216;2023-02-11T12:59:46;0.10;99.90
12682;DHT22;6405;59.208;18.216;2023-02-11T13:02:18;0.10;99.90
12682;DHT22;6405;59.208;18.216;2023-02-11T13:04:49;0.20;99.90
12682;DHT22;6405;59.208;18.216;2023-02-11T13:07:22;0.20;99.90
12682;DHT22;6405;59.208;18.216;2023-02-11T13:10:13;0.20;99.90
12682;DHT22;6405;59.208;18.216;2023-02-11T13:12:43;0.20;99.90
12682;DHT22;6405;59.208;18.216;2023-02-11T13:15:29;0.20;99.90
12682;DHT22;6405;59.208;18.216;2023-02-11T13:20:48;0.10;99.90
12682;DHT22;6405;59.208;18.216;2023-02-11T13:26:26;0.00;99.90
12682;DHT22;6405;59.208;18.216;2023-02-11T13:29:21;0.00;99.90
12682;DHT22;6405;59.208;18.216;2023-02-11T13:32:13;0.00;99.90
12682;DHT22;6405;59.208;18.216;2023-02-11T13:37:18;-0.10;99.90
12682;DHT22;6405;59.208;18.216;2023-02-11T13:40:02;-0.10;99.90
12682;DHT22;6405;59.208;18.216;2023-02-11T13:42:29;0.00;99.90
12682;DHT22;6405;59.208;18.216;2023-02-11T13:44:56;0.00;99.90
12682;DHT22;6405;59.208;18.216;2023-02-11T13:47:32;0.00;99.90
12682;DHT22;6405;59.208;18.216;2023-02-11T13:50:00;-0.10;99.90
12682;DHT22;6405;59.208;18.216;2023-02-11T13:52:30;-0.10;99.90
12682;DHT22;6405;59.208;18.216;2023-02-11T13:55:06;-0.20;99.90
12682;DHT22;6405;59.208;18.216;2023-02-11T13:57:35;-0.20;99.90
12682;DHT22;6405;59.208;18.216;2023-02-11T14:16:26;-0.40;99.90
12682;DHT22;6405;59.208;18.216;2023-02-11T14:23:52;-0.40;99.90
12682;DHT22;6405;59.208;18.216;2023-02-11T14:28:59;-0.50;99.90
12682;DHT22;6405;59.208;18.216;2023-02-11T14:31:37;-0.50;99.90
12682;DHT22;6405;59.208;18.216;2023-02-11T14:37:30;-0.60;99.90
12682;DHT22;6405;59.208;18.216;2023-02-11T14:40:24;-0.70;99.90
12682;DHT22;6405;59.208;18.216;2023-02-11T14:42:52;-0.70;99.90
12682;DHT22;6405;59.208;18.216;2023-02-11T14:45:22;-0.80;99.90
12682;DHT22;6405;59.208;18.216;2023-02-11T14:48:35;-0.80;99.90
12682;DHT22;6405;59.208;18.216;2023-02-11T14:50:51;-0.80;99.90
12682;DHT22;6405;59.208;18.216;2023-02-11T14:53:24;-0.90;99.90
12682;DHT22;6405;59.208;18.216;2023-02-11T14:55:52;-0.90;99.90
12682;DHT22;6405;59.208;18.216;2023-02-11T14:58:21;-1.00;99.90
12682;DHT22;6405;59.208;18.216;2023-02-11T15:03:40;-1.10;99.90
12682;DHT22;6405;59.208;18.216;2023-02-11T15:08:34;-1.10;99.90
12682;DHT22;6405;59.208;18.216;2023-02-11T15:11:02;-1.20;99.90
12682;DHT22;6405;59.208;18.216;2023-02-11T15:13:32;-1.30;99.90
12682;DHT22;6405;59.208;18.216;2023-02-11T15:16:02;-1.30;99.90
12682;DHT22;6405;59.208;18.216;2023-02-11T15:18:34;-1.40;99.90
12682;DHT22;6405;59.208;18.216;2023-02-11T15:21:01;-1.40;99.90
12682;DHT22;6405;59.208;18.216;2023-02-11T15:23:28;-1.40;99.90
12682;DHT22;6405;59.208;18.216;2023-02-11T15:25:54;-1.50;99.90
12682;DHT22;6405;59.208;18.216;2023-02-11T15:28:27;-1.50;99.90
12682;DHT22;6405;59.208;18.216;2023-02-11T15:31:20;-1.60;99.90
12682;DHT22;6405;59.208;18.216;2023-02-11T15:33:48;-1.60;99.90
12682;DHT22;6405;59.208;18.216;2023-02-11T15:36:15;-1.70;99.90
12682;DHT22;6405;59.208;18.216;2023-02-11T15:38:41;-1.80;99.90
12682;DHT22;6405;59.208;18.216;2023-02-11T15:41:07;-1.90;99.90
12682;DHT22;6405;59.208;18.216;2023-02-11T15:43:52;-2.00;99.90
12682;DHT22;6405;59.208;18.216;2023-02-11T15:46:22;-2.10;99.90
12682;DHT22;6405;59.208;18.216;2023-02-11T15:48:50;-2.30;99.90
12682;DHT22;6405;59.208;18.216;2023-02-11T15:51:22;-2.30;99.90
12682;DHT22;6405;59.208;18.216;2023-02-11T15:53:54;-2.40;99.90
12682;DHT22;6405;59.208;18.216;2023-02-11T15:56:42;-2.40;99.90
12682;DHT22;6405;59.208;18.216;2023-02-11T15:59:24;-2.50;99.90
12682;DHT22;6405;59.208;18.216;2023-02-11T16:01:50;-2.50;99.90
12682;DHT22;6405;59.208;18.216;2023-02-11T16:04:19;-2.60;99.90
12682;DHT22;6405;59.208;18.216;2023-02-11T16:06:46;-2.70;99.90
12682;DHT22;6405;59.208;18.216;2023-02-11T16:16:54;-2.80;99.90
12682;DHT22;6405;59.208;18.216;2023-02-11T16:19:21;-2.90;99.90
12682;DHT22;6405;59.208;18.216;2023-02-11T16:21:48;-2.90;99.90
12682;DHT22;6405;59.208;18.216;2023-02-11T16:24:24;-2.90;99.90
12682;DHT22;6405;59.208;18.216;2023-02-11T16:26:54;-3.00;99.90
12682;DHT22;6405;59.208;18.216;2023-02-11T16:29:27;-3.10;99.90
12682;DHT22;6405;59.208;18.216;2023-02-11T16:32:03;-3.00;99.90
12682;DHT22;6405;59.208;18.216;2023-02-11T16:34:29;-3.10;99.90
12682;DHT22;6405;59.208;18.216;2023-02-11T16:36:55;-3.20;99.90
12682;DHT22;6405;59.208;18.216;2023-02-11T16:39:21;-3.30;99.90
12682;DHT22;6405;59.208;18.216;2023-02-11T16:41:48;-3.30;99.90
12682;DHT22;6405;59.208;18.216;2023-02-11T16:44:17;-3.30;99.90
12682;DHT22;6405;59.208;18.216;2023-02-11T16:46:42;-3.40;99.90
12682;DHT22;6405;59.208;18.216;2023-02-11T16:49:29;-3.40;99.90
12682;DHT22;6405;59.208;18.216;2023-02-11T16:51:58;-3.50;99.90
12682;DHT22;6405;59.208;18.216;2023-02-11T16:54:26;-3.50;99.90
12682;DHT22;6405;59.208;18.216;2023-02-11T16:56:52;-3.60;99.90
12682;DHT22;6405;59.208;18.216;2023-02-11T16:59:18;-3.60;99.90
12682;DHT22;6405;59.208;18.216;2023-02-11T17:01:45;-3.70;99.90
12682;DHT22;6405;59.208;18.216;2023-02-11T17:04:20;-3.70;99.90
12682;DHT22;6405;59.208;18.216;2023-02-11T17:06:48;-3.80;99.90
12682;DHT22;6405;59.208;18.216;2023-02-11T17:09:21;-3.90;99.90
12682;DHT22;6405;59.208;18.216;2023-02-11T17:11:47;-4.00;99.90
12682;DHT22;6405;59.208;18.216;2023-02-11T17:14:13;-4.00;99.90
12682;DHT22;6405;59.208;18.216;2023-02-11T17:16:40;-4.10;99.90
12682;DHT22;6405;59.208;18.216;2023-02-11T17:19:06;-4.10;99.90
12682;DHT22;6405;59.208;18.216;2023-02-11T17:21:32;-4.20;99.90
12682;DHT22;6405;59.208;18.216;2023-02-11T17:23:58;-4.20;99.90
12682;DHT22;6405;59.208;18.216;2023-02-11T17:26:24;-4.20;99.90
12682;DHT22;6405;59.208;18.216;2023-02-11T17:28:49;-4.30;99.90
12682;DHT22;6405;59.208;18.216;2023-02-11T17:31:15;-4.30;99.90
12682;DHT22;6405;59.208;18.216;2023-02-11T17:33:41;-4.40;99.90
12682;DHT22;6405;59.208;18.216;2023-02-11T17:36:08;-4.40;99.90
12682;DHT22;6405;59.208;18.216;2023-02-11T17:38:35;-4.50;99.90
12682;DHT22;6405;59.208;18.216;2023-02-11T17:41:02;-4.50;99.90
12682;DHT22;6405;59.208;18.216;2023-02-11T17:43:30;-4.50;99.90
12682;DHT22;6405;59.208;18.216;2023-02-11T17:45:56;-4.60;99.90
12682;DHT22;6405;59.208;18.216;2023-02-11T17:48:22;-4.60;99.90
12682;DHT22;6405;59.208;18.216;2023-02-11T17:50:48;-4.60;99.90
12682;DHT22;6405;59.208;18.216;2023-02-11T17:53:14;-4.60;99.90
12682;DHT22;6405;59.208;18.216;2023-02-11T17:55:40;-4.60;99.90
12682;DHT22;6405;59.208;18.216;2023-02-11T17:58:06;-4.60;99.90
12682;DHT22;6405;59.208;18.216;2023-02-11T18:00:31;-4.60;99.90
12682;DHT22;6405;59.208;18.216;2023-02-11T18:02:57;-4.60;99.90
12682;DHT22;6405;59.208;18.216;2023-02-11T18:05:27;-4.70;99.90